sensor_id;sensor_type;location;lat;lon;timestamp;temperature;humidity
47482;DHT22;33219;47.410;9.730;2023-06-22T00:02:25;22.30;93.70
47482;DHT22;33219;47.410;9.730;2023-06-22T00:04:52;22.30;93.70
47482;DHT22;33219;47.410;9.730;2023-06-22T00:07:20;22.30;93.70
47482;DHT22;33219;47.410;9.730;2023-06-22T00:09:48;22.30;93.50
47482;DHT22;33219;47.410;9.730;2023-06-22T00:12:15;22.30;93.50
47482;DHT22;33219;47.410;9.730;2023-06-22T00:14:43;22.30;93.50
47482;DHT22;33219;47.410;9.730;2023-06-22T00:17:11;22.20;93.60
47482;DHT22;33219;47.410;9.730;2023-06-22T00:19:38;22.20;93.70
47482;DHT22;33219;47.410;9.730;2023-06-22T00:22:06;22.10;93.40
47482;DHT22;33219;47.410;9.730;2023-06-22T00:24:34;22.10;93.50
47482;DHT22;33219;47.410;9.730;2023-06-22T00:27:02;22.10;93.60
47482;DHT22;33219;47.410;9.730;2023-06-22T00:29:31;22.00;93.70
47482;DHT22;33219;47.410;9.730;2023-06-22T00:31:59;22.00;94.10
47482;DHT22;33219;47.410;9.730;2023-06-22T00:34:26;22.00;94.30
47482;DHT22;33219;47.410;9.730;2023-06-22T00:36:59;21.80;94.50
47482;DHT22;33219;47.410;9.730;2023-06-22T00:39:23;21.70;94.70
47482;DHT22;33219;47.410;9.730;2023-06-22T00:41:51;21.70;94.70
47482;DHT22;33219;47.410;9.730;2023-06-22T00:44:18;21.70;94.10
47482;DHT22;33219;47.410;9.730;2023-06-22T00:46:46;21.70;93.20
47482;DHT22;33219;47.410;9.730;2023-06-22T00:49:13;21.80;93.10
47482;DHT22;33219;47.410;9.730;2023-06-22T00:51:41;21.80;92.80
47482;DHT22;33219;47.410;9.730;2023-06-22T00:54:11;21.90;92.80
47482;DHT22;33219;47.410;9.730;2023-06-22T00:56:41;21.80;92.80
47482;DHT22;33219;47.410;9.730;2023-06-22T00:59:11;21.80;92.90
47482;DHT22;33219;47.410;9.730;2023-06-22T01:01:38;21.80;92.70
47482;DHT22;33219;47.410;9.730;2023-06-22T01:04:07;21.80;92.80
47482;DHT22;33219;47.410;9.730;2023-06-22T01:06:54;21.70;92.90
47482;DHT22;33219;47.410;9.730;2023-06-22T01:09:26;21.70;92.90
47482;DHT22;33219;47.410;9.730;2023-06-22T01:11:58;21.70;92.80
47482;DHT22;33219;47.410;9.730;2023-06-22T01:14:28;21.60;92.80
47482;DHT22;33219;47.410;9.730;2023-06-22T01:16:57;21.60;92.80
47482;DHT22;33219;47.410;9.730;2023-06-22T01:22:01;21.50;93.00
47482;DHT22;33219;47.410;9.730;2023-06-22T01:24:47;21.40;93.40
47482;DHT22;33219;47.410;9.730;2023-06-22T01:27:28;21.40;94.30
47482;DHT22;33219;47.410;9.730;2023-06-22T01:29:56;21.20;94.80
47482;DHT22;33219;47.410;9.730;2023-06-22T01:32:30;21.10;95.10
47482;DHT22;33219;47.410;9.730;2023-06-22T01:35:04;21.00;95.40
47482;DHT22;33219;47.410;9.730;2023-06-22T01:37:33;21.00;95.90
47482;DHT22;33219;47.410;9.730;2023-06-22T01:40:02;20.90;96.40
47482;DHT22;33219;47.410;9.730;2023-06-22T01:42:32;20.80;96.30
47482;DHT22;33219;47.410;9.730;2023-06-22T01:45:00;20.80;96.50
47482;DHT22;33219;47.410;9.730;2023-06-22T01:47:29;20.80;97.00
47482;DHT22;33219;47.410;9.730;2023-06-22T01:49:57;20.70;97.60
47482;DHT22;33219;47.410;9.730;2023-06-22T01:52:25;20.60;97.90
47482;DHT22;33219;47.410;9.730;2023-06-22T01:54:52;20.60;98.40
47482;DHT22;33219;47.410;9.730;2023-06-22T01:57:20;20.50;98.50
47482;DHT22;33219;47.410;9.730;2023-06-22T02:00:10;20.40;98.80
47482;DHT22;33219;47.410;9.730;2023-06-22T02:05:34;20.40;99.90
47482;DHT22;33219;47.410;9.730;2023-06-22T02:08:09;20.50;99.90
47482;DHT22;33219;47.410;9.730;2023-06-22T02:10:38;20.50;99.90
47482;DHT22;33219;47.410;9.730;2023-06-22T02:13:08;20.50;99.90
47482;DHT22;33219;47.410;9.730;2023-06-22T02:15:37;20.60;99.90
47482;DHT22;33219;47.410;9.730;2023-06-22T02:18:05;20.60;99.90
47482;DHT22;33219;47.410;9.730;2023-06-22T02:20:37;20.50;99.90
47482;DHT22;33219;47.410;9.730;2023-06-22T02:23:07;20.50;99.90
47482;DHT22;33219;47.410;9.730;2023-06-22T02:25:35;20.50;99.90
47482;DHT22;33219;47.410;9.730;2023-06-22T02:28:03;20.50;99.90
47482;DHT22;33219;47.410;9.730;2023-06-22T02:30:31;20.50;99.90
47482;DHT22;33219;47.410;9.730;2023-06-22T02:32:58;20.50;99.90
47482;DHT22;33219;47.410;9.730;2023-06-22T02:35:30;20.50;99.90
47482;DHT22;33219;47.410;9.730;2023-06-22T02:38:03;20.50;99.90
47482;DHT22;33219;47.410;9.730;2023-06-22T02:40:31;20.50;99.90
47482;DHT22;33219;47.410;9.730;2023-06-22T02:42:59;20.50;99.90
47482;DHT22;33219;47.410;9.730;2023-06-22T02:45:29;20.50;99.90
47482;DHT22;33219;47.410;9.730;2023-06-22T02:47:57;20.50;99.90
47482;DHT22;33219;47.410;9.730;2023-06-22T02:50:25;20.60;99.90
47482;DHT22;33219;47.410;9.730;2023-06-22T02:52:52;20.60;99.90
47482;DHT22;33219;47.410;9.730;2023-06-22T02:55:20;20.60;99.90
47482;DHT22;33219;47.410;9.730;2023-06-22T02:57:47;20.60;99.90
47482;DHT22;33219;47.410;9.730;2023-06-22T03:00:17;20.60;99.90
47482;DHT22;33219;47.410;9.730;2023-06-22T03:02:47;20.60;99.90
47482;DHT22;33219;47.410;9.730;2023-06-22T03:05:15;20.60;99.90
47482;DHT22;33219;47.410;9.730;2023-06-22T03:07:45;20.60;99.90
47482;DHT22;33219;47.410;9.730;2023-06-22T03:10:13;20.60;99.90
47482;DHT22;33219;47.410;9.730;2023-06-22T03:12:42;20.50;99.90
47482;DHT22;33219;47.410;9.730;2023-06-22T03:15:11;20.60;99.90
47482;DHT22;33219;47.410;9.730;2023-06-22T03:17:39;20.50;99.90
47482;DHT22;33219;47.410;9.730;2023-06-22T03:20:08;20.50;99.90
47482;DHT22;33219;47.410;9.730;2023-06-22T03:22:39;20.60;99.90
47482;DHT22;33219;47.410;9.730;2023-06-22T03:25:08;20.50;99.90
47482;DHT22;33219;47.410;9.730;2023-06-22T03:27:45;20.50;99.90
47482;DHT22;33219;47.410;9.730;2023-06-22T03:30:13;20.50;99.90
47482;DHT22;33219;47.410;9.730;2023-06-22T03:32:41;20.50;99.90
47482;DHT22;33219;47.410;9.730;2023-06-22T03:35:10;20.50;99.90
47482;DHT22;33219;47.410;9.730;2023-06-22T03:37:39;20.50;99.90
47482;DHT22;33219;47.410;9.730;2023-06-22T03:40:07;20.50;99.90
47482;DHT22;33219;47.410;9.730;2023-06-22T03:42:35;20.50;99.90
47482;DHT22;33219;47.410;9.730;2023-06-22T03:45:03;20.50;99.90
47482;DHT22;33219;47.410;9.730;2023-06-22T03:47:31;20.50;99.90
47482;DHT22;33219;47.410;9.730;2023-06-22T03:49:59;20.60;99.90
47482;DHT22;33219;47.410;9.730;2023-06-22T03:52:27;20.60;99.90
47482;DHT22;33219;47.410;9.730;2023-06-22T03:54:54;20.60;99.90
47482;DHT22;33219;47.410;9.730;2023-06-22T03:57:22;20.60;99.90
47482;DHT22;33219;47.410;9.730;2023-06-22T03:59:50;20.60;99.90
47482;DHT22;33219;47.410;9.730;2023-06-22T04:02:17;20.70;99.90
47482;DHT22;33219;47.410;9.730;2023-06-22T04:04:45;20.70;99.90
47482;DHT22;33219;47.410;9.730;2023-06-22T04:07:12;20.70;99.90
47482;DHT22;33219;47.410;9.730;2023-06-22T04:09:40;20.70;99.90
47482;DHT22;33219;47.410;9.730;2023-06-22T04:12:08;20.70;99.90
47482;DHT22;33219;47.410;9.730;2023-06-22T04:14:35;20.70;99.90
47482;DHT22;33219;47.410;9.730;2023-06-22T04:17:03;20.70;99.90
47482;DHT22;33219;47.410;9.730;2023-06-22T04:19:31;20.70;99.90
47482;DHT22;33219;47.410;9.730;2023-06-22T04:21:59;20.70;99.90
47482;DHT22;33219;47.410;9.730;2023-06-22T04:24:27;20.90;99.90
47482;DHT22;33219;47.410;9.730;2023-06-22T04:26:54;20.90;99.90
47482;DHT22;33219;47.410;9.730;2023-06-22T04:29:22;20.90;99.90
47482;DHT22;33219;47.410;9.730;2023-06-22T04:31:53;21.00;99.90
47482;DHT22;33219;47.410;9.730;2023-06-22T04:34:22;21.00;99.90
47482;DHT22;33219;47.410;9.730;2023-06-22T04:36:51;21.20;99.90
47482;DHT22;33219;47.410;9.730;2023-06-22T04:39:19;21.20;99.90
47482;DHT22;33219;47.410;9.730;2023-06-22T04:41:46;21.50;99.90
47482;DHT22;33219;47.410;9.730;2023-06-22T04:44:16;21.80;99.90
47482;DHT22;33219;47.410;9.730;2023-06-22T04:46:48;22.00;99.90
47482;DHT22;33219;47.410;9.730;2023-06-22T04:49:17;22.20;99.90
47482;DHT22;33219;47.410;9.730;2023-06-22T04:51:46;22.30;99.90
47482;DHT22;33219;47.410;9.730;2023-06-22T04:54:13;22.70;99.90
47482;DHT22;33219;47.410;9.730;2023-06-22T04:56:41;23.10;99.90
47482;DHT22;33219;47.410;9.730;2023-06-22T04:59:09;23.60;99.90
47482;DHT22;33219;47.410;9.730;2023-06-22T05:01:38;24.10;99.90
47482;DHT22;33219;47.410;9.730;2023-06-22T05:04:05;24.40;99.90
47482;DHT22;33219;47.410;9.730;2023-06-22T05:06:34;24.90;99.90
47482;DHT22;33219;47.410;9.730;2023-06-22T05:09:01;25.30;99.90
47482;DHT22;33219;47.410;9.730;2023-06-22T05:11:29;25.60;99.90
47482;DHT22;33219;47.410;9.730;2023-06-22T05:13:57;25.50;99.90
47482;DHT22;33219;47.410;9.730;2023-06-22T05:16:25;26.00;99.90
47482;DHT22;33219;47.410;9.730;2023-06-22T05:18:53;26.20;99.90
47482;DHT22;33219;47.410;9.730;2023-06-22T05:21:23;26.30;99.60
47482;DHT22;33219;47.410;9.730;2023-06-22T05:23:52;26.40;99.30
47482;DHT22;33219;47.410;9.730;2023-06-22T05:26:21;26.80;99.10
47482;DHT22;33219;47.410;9.730;2023-06-22T05:28:56;27.20;98.30
47482;DHT22;33219;47.410;9.730;2023-06-22T05:31:30;27.70;97.50
47482;DHT22;33219;47.410;9.730;2023-06-22T05:33:59;27.70;97.10
47482;DHT22;33219;47.410;9.730;2023-06-22T05:36:28;27.50;97.20
47482;DHT22;33219;47.410;9.730;2023-06-22T05:38:58;27.40;97.20
47482;DHT22;33219;47.410;9.730;2023-06-22T05:41:26;27.70;96.80
47482;DHT22;33219;47.410;9.730;2023-06-22T05:43:54;28.00;96.40
47482;DHT22;33219;47.410;9.730;2023-06-22T05:46:24;28.50;95.90
47482;DHT22;33219;47.410;9.730;2023-06-22T05:48:56;28.70;95.10
47482;DHT22;33219;47.410;9.730;2023-06-22T05:51:33;29.20;94.30
47482;DHT22;33219;47.410;9.730;2023-06-22T05:54:07;29.90;93.40
47482;DHT22;33219;47.410;9.730;2023-06-22T05:56:43;29.80;92.80
47482;DHT22;33219;47.410;9.730;2023-06-22T06:54:33;33.40;80.80
47482;DHT22;33219;47.410;9.730;2023-06-22T06:57:12;34.20;79.00
47482;DHT22;33219;47.410;9.730;2023-06-22T06:59:53;34.60;77.80
47482;DHT22;33219;47.410;9.730;2023-06-22T07:02:26;34.70;77.30
47482;DHT22;33219;47.410;9.730;2023-06-22T07:05:03;35.50;75.10
47482;DHT22;33219;47.410;9.730;2023-06-22T07:07:55;35.00;75.30
47482;DHT22;33219;47.410;9.730;2023-06-22T07:16:23;35.30;73.60
47482;DHT22;33219;47.410;9.730;2023-06-22T07:19:03;34.90;74.40
47482;DHT22;33219;47.410;9.730;2023-06-22T07:25:11;34.90;74.80
47482;DHT22;33219;47.410;9.730;2023-06-22T07:31:35;34.20;75.10
47482;DHT22;33219;47.410;9.730;2023-06-22T07:37:49;32.50;79.40
47482;DHT22;33219;47.410;9.730;2023-06-22T07:40:43;33.20;78.20
47482;DHT22;33219;47.410;9.730;2023-06-22T07:43:38;34.20;76.50
47482;DHT22;33219;47.410;9.730;2023-06-22T07:49:50;34.40;76.40
47482;DHT22;33219;47.410;9.730;2023-06-22T07:53:19;34.90;76.00
47482;DHT22;33219;47.410;9.730;2023-06-22T07:56:11;34.50;76.50
47482;DHT22;33219;47.410;9.730;2023-06-22T07:59:08;34.70;76.10
47482;DHT22;33219;47.410;9.730;2023-06-22T08:01:51;34.90;75.50
47482;DHT22;33219;47.410;9.730;2023-06-22T08:04:58;35.40;74.60
47482;DHT22;33219;47.410;9.730;2023-06-22T08:07:45;35.50;74.10
47482;DHT22;33219;47.410;9.730;2023-06-22T08:10:31;34.50;75.10
47482;DHT22;33219;47.410;9.730;2023-06-22T08:13:13;33.50;77.00
47482;DHT22;33219;47.410;9.730;2023-06-22T08:16:00;33.70;77.10
47482;DHT22;33219;47.410;9.730;2023-06-22T08:18:54;34.60;75.30
47482;DHT22;33219;47.410;9.730;2023-06-22T08:35:10;31.00;81.90
47482;DHT22;33219;47.410;9.730;2023-06-22T08:38:15;30.10;83.50
47482;DHT22;33219;47.410;9.730;2023-06-22T08:51:35;30.40;84.70
47482;DHT22;33219;47.410;9.730;2023-06-22T08:54:59;29.70;86.90
47482;DHT22;33219;47.410;9.730;2023-06-22T09:05:35;27.50;90.80
47482;DHT22;33219;47.410;9.730;2023-06-22T09:08:25;27.40;91.10
47482;DHT22;33219;47.410;9.730;2023-06-22T09:11:16;27.50;90.60
47482;DHT22;33219;47.410;9.730;2023-06-22T09:13:59;27.90;90.30
47482;DHT22;33219;47.410;9.730;2023-06-22T09:16:48;28.70;89.50
47482;DHT22;33219;47.410;9.730;2023-06-22T09:19:41;28.40;90.00
47482;DHT22;33219;47.410;9.730;2023-06-22T09:22:28;28.30;89.00
47482;DHT22;33219;47.410;9.730;2023-06-22T09:26:31;28.30;89.50
47482;DHT22;33219;47.410;9.730;2023-06-22T09:29:29;28.40;89.60
47482;DHT22;33219;47.410;9.730;2023-06-22T09:32:51;28.90;88.90
47482;DHT22;33219;47.410;9.730;2023-06-22T09:35:50;29.20;86.60
47482;DHT22;33219;47.410;9.730;2023-06-22T09:58:16;30.00;85.80
47482;DHT22;33219;47.410;9.730;2023-06-22T10:01:00;30.20;85.20
47482;DHT22;33219;47.410;9.730;2023-06-22T10:03:45;30.60;84.20
47482;DHT22;33219;47.410;9.730;2023-06-22T10:09:13;30.20;85.80
47482;DHT22;33219;47.410;9.730;2023-06-22T10:11:51;30.50;85.00
47482;DHT22;33219;47.410;9.730;2023-06-22T10:14:30;30.60;84.50
47482;DHT22;33219;47.410;9.730;2023-06-22T10:17:15;30.80;84.60
47482;DHT22;33219;47.410;9.730;2023-06-22T10:20:02;30.30;85.00
47482;DHT22;33219;47.410;9.730;2023-06-22T10:22:39;29.80;86.40
47482;DHT22;33219;47.410;9.730;2023-06-22T10:25:32;29.60;86.50
47482;DHT22;33219;47.410;9.730;2023-06-22T10:28:13;29.50;87.20
47482;DHT22;33219;47.410;9.730;2023-06-22T10:31:02;29.60;87.00
47482;DHT22;33219;47.410;9.730;2023-06-22T10:36:23;29.80;86.50
47482;DHT22;33219;47.410;9.730;2023-06-22T10:38:52;29.70;86.60
47482;DHT22;33219;47.410;9.730;2023-06-22T10:41:20;29.60;86.30
47482;DHT22;33219;47.410;9.730;2023-06-22T10:43:47;29.60;86.40
47482;DHT22;33219;47.410;9.730;2023-06-22T10:46:15;29.50;87.20
47482;DHT22;33219;47.410;9.730;2023-06-22T10:48:43;29.40;88.20
47482;DHT22;33219;47.410;9.730;2023-06-22T10:51:11;29.50;87.70
47482;DHT22;33219;47.410;9.730;2023-06-22T10:53:39;29.90;87.40
47482;DHT22;33219;47.410;9.730;2023-06-22T10:56:07;29.90;87.90
47482;DHT22;33219;47.410;9.730;2023-06-22T10:58:34;30.30;87.10
47482;DHT22;33219;47.410;9.730;2023-06-22T11:01:02;30.50;86.50
47482;DHT22;33219;47.410;9.730;2023-06-22T11:03:30;30.70;87.50
47482;DHT22;33219;47.410;9.730;2023-06-22T11:05:58;30.90;86.00
47482;DHT22;33219;47.410;9.730;2023-06-22T11:08:26;31.10;85.50
47482;DHT22;33219;47.410;9.730;2023-06-22T11:10:54;31.30;85.40
47482;DHT22;33219;47.410;9.730;2023-06-22T11:13:22;31.30;85.00
47482;DHT22;33219;47.410;9.730;2023-06-22T11:16:02;31.30;85.10
47482;DHT22;33219;47.410;9.730;2023-06-22T11:18:45;31.50;85.40
47482;DHT22;33219;47.410;9.730;2023-06-22T11:24:05;31.30;85.70
47482;DHT22;33219;47.410;9.730;2023-06-22T11:26:55;31.70;84.60
47482;DHT22;33219;47.410;9.730;2023-06-22T11:29:36;31.80;84.50
47482;DHT22;33219;47.410;9.730;2023-06-22T11:32:08;31.70;84.20
47482;DHT22;33219;47.410;9.730;2023-06-22T11:34:54;31.50;84.10
47482;DHT22;33219;47.410;9.730;2023-06-22T11:37:24;31.50;84.50
47482;DHT22;33219;47.410;9.730;2023-06-22T11:39:53;31.60;84.50
47482;DHT22;33219;47.410;9.730;2023-06-22T11:42:23;31.70;84.20
47482;DHT22;33219;47.410;9.730;2023-06-22T11:44:52;31.80;84.10
47482;DHT22;33219;47.410;9.730;2023-06-22T11:47:20;31.80;84.50
47482;DHT22;33219;47.410;9.730;2023-06-22T11:49:48;31.90;84.00
47482;DHT22;33219;47.410;9.730;2023-06-22T11:52:16;32.10;83.20
47482;DHT22;33219;47.410;9.730;2023-06-22T11:54:46;32.20;82.50
47482;DHT22;33219;47.410;9.730;2023-06-22T11:57:15;32.20;82.50
47482;DHT22;33219;47.410;9.730;2023-06-22T11:59:43;32.30;82.50
47482;DHT22;33219;47.410;9.730;2023-06-22T12:02:11;32.00;84.60
47482;DHT22;33219;47.410;9.730;2023-06-22T12:04:39;32.20;83.60
47482;DHT22;33219;47.410;9.730;2023-06-22T12:07:06;32.40;83.40
47482;DHT22;33219;47.410;9.730;2023-06-22T12:09:34;32.20;83.10
47482;DHT22;33219;47.410;9.730;2023-06-22T12:12:02;31.80;83.50
47482;DHT22;33219;47.410;9.730;2023-06-22T12:14:31;31.40;85.90
47482;DHT22;33219;47.410;9.730;2023-06-22T12:16:59;31.30;85.60
47482;DHT22;33219;47.410;9.730;2023-06-22T12:19:27;31.50;84.60
47482;DHT22;33219;47.410;9.730;2023-06-22T12:21:54;31.60;84.30
47482;DHT22;33219;47.410;9.730;2023-06-22T12:24:28;31.50;84.60
47482;DHT22;33219;47.410;9.730;2023-06-22T12:26:58;31.50;84.00
47482;DHT22;33219;47.410;9.730;2023-06-22T12:29:30;31.80;84.40
47482;DHT22;33219;47.410;9.730;2023-06-22T12:31:58;31.70;85.40
47482;DHT22;33219;47.410;9.730;2023-06-22T12:34:27;31.40;86.60
47482;DHT22;33219;47.410;9.730;2023-06-22T12:36:59;31.20;85.80
47482;DHT22;33219;47.410;9.730;2023-06-22T12:39:29;31.40;85.40
47482;DHT22;33219;47.410;9.730;2023-06-22T12:41:56;31.70;84.20
47482;DHT22;33219;47.410;9.730;2023-06-22T12:44:24;31.90;83.50
47482;DHT22;33219;47.410;9.730;2023-06-22T12:46:52;32.10;83.80
47482;DHT22;33219;47.410;9.730;2023-06-22T12:49:19;32.10;84.10
47482;DHT22;33219;47.410;9.730;2023-06-22T12:51:47;32.20;83.70
47482;DHT22;33219;47.410;9.730;2023-06-22T12:54:14;32.30;84.40
47482;DHT22;33219;47.410;9.730;2023-06-22T12:56:42;32.10;83.50
47482;DHT22;33219;47.410;9.730;2023-06-22T12:59:12;31.80;83.70
47482;DHT22;33219;47.410;9.730;2023-06-22T13:01:40;31.80;83.70
47482;DHT22;33219;47.410;9.730;2023-06-22T13:04:07;32.00;81.60
47482;DHT22;33219;47.410;9.730;2023-06-22T13:06:38;32.10;81.00
47482;DHT22;33219;47.410;9.730;2023-06-22T13:09:05;32.10;80.70
47482;DHT22;33219;47.410;9.730;2023-06-22T13:11:33;32.20;80.70
47482;DHT22;33219;47.410;9.730;2023-06-22T13:14:01;32.10;79.50
47482;DHT22;33219;47.410;9.730;2023-06-22T13:16:28;32.10;79.60
47482;DHT22;33219;47.410;9.730;2023-06-22T13:18:56;32.20;79.00
47482;DHT22;33219;47.410;9.730;2023-06-22T13:21:23;32.20;79.50
47482;DHT22;33219;47.410;9.730;2023-06-22T13:23:51;32.40;79.60
47482;DHT22;33219;47.410;9.730;2023-06-22T13:26:20;32.50;79.80
47482;DHT22;33219;47.410;9.730;2023-06-22T13:28:48;32.60;79.30
47482;DHT22;33219;47.410;9.730;2023-06-22T13:31:15;32.70;78.90
47482;DHT22;33219;47.410;9.730;2023-06-22T13:33:43;32.50;77.00
47482;DHT22;33219;47.410;9.730;2023-06-22T13:36:12;32.50;77.00
47482;DHT22;33219;47.410;9.730;2023-06-22T13:38:40;32.50;76.50
47482;DHT22;33219;47.410;9.730;2023-06-22T13:41:07;32.30;76.80
47482;DHT22;33219;47.410;9.730;2023-06-22T13:43:35;32.20;79.20
47482;DHT22;33219;47.410;9.730;2023-06-22T13:46:02;32.10;81.10
47482;DHT22;33219;47.410;9.730;2023-06-22T13:48:30;31.90;82.90
47482;DHT22;33219;47.410;9.730;2023-06-22T13:50:57;31.80;82.90
47482;DHT22;33219;47.410;9.730;2023-06-22T13:53:25;31.40;84.80
47482;DHT22;33219;47.410;9.730;2023-06-22T13:55:53;31.30;85.50
47482;DHT22;33219;47.410;9.730;2023-06-22T13:58:21;31.10;85.00
47482;DHT22;33219;47.410;9.730;2023-06-22T14:00:48;31.10;84.50
47482;DHT22;33219;47.410;9.730;2023-06-22T14:03:16;31.10;84.90
47482;DHT22;33219;47.410;9.730;2023-06-22T14:05:43;31.10;85.40
47482;DHT22;33219;47.410;9.730;2023-06-22T14:08:12;31.00;86.20
47482;DHT22;33219;47.410;9.730;2023-06-22T14:10:39;31.10;85.20
47482;DHT22;33219;47.410;9.730;2023-06-22T14:13:07;31.20;84.90
47482;DHT22;33219;47.410;9.730;2023-06-22T14:15:35;31.30;84.20
47482;DHT22;33219;47.410;9.730;2023-06-22T14:18:02;31.30;84.30
47482;DHT22;33219;47.410;9.730;2023-06-22T14:20:30;31.50;84.10
47482;DHT22;33219;47.410;9.730;2023-06-22T14:22:57;31.40;83.30
47482;DHT22;33219;47.410;9.730;2023-06-22T14:25:25;31.40;82.70
47482;DHT22;33219;47.410;9.730;2023-06-22T14:27:52;31.40;82.50
47482;DHT22;33219;47.410;9.730;2023-06-22T14:30:20;31.40;83.40
47482;DHT22;33219;47.410;9.730;2023-06-22T14:32:48;31.50;82.30
47482;DHT22;33219;47.410;9.730;2023-06-22T14:35:15;31.70;82.20
47482;DHT22;33219;47.410;9.730;2023-06-22T14:37:43;31.60;82.20
47482;DHT22;33219;47.410;9.730;2023-06-22T14:40:11;31.70;81.50
47482;DHT22;33219;47.410;9.730;2023-06-22T14:42:38;31.70;77.80
47482;DHT22;33219;47.410;9.730;2023-06-22T14:45:08;31.70;76.70
47482;DHT22;33219;47.410;9.730;2023-06-22T14:47:35;31.70;76.30
47482;DHT22;33219;47.410;9.730;2023-06-22T14:50:03;31.80;76.10
47482;DHT22;33219;47.410;9.730;2023-06-22T14:52:31;32.00;77.10
47482;DHT22;33219;47.410;9.730;2023-06-22T14:54:58;31.90;77.70
47482;DHT22;33219;47.410;9.730;2023-06-22T14:57:26;31.90;76.60
47482;DHT22;33219;47.410;9.730;2023-06-22T14:59:53;31.50;78.90
47482;DHT22;33219;47.410;9.730;2023-06-22T15:02:22;31.40;80.00
47482;DHT22;33219;47.410;9.730;2023-06-22T15:04:50;31.20;83.60
47482;DHT22;33219;47.410;9.730;2023-06-22T15:07:19;30.90;82.50
47482;DHT22;33219;47.410;9.730;2023-06-22T15:09:47;30.70;84.60
47482;DHT22;33219;47.410;9.730;2023-06-22T15:12:14;30.40;87.20
47482;DHT22;33219;47.410;9.730;2023-06-22T15:14:42;30.20;87.80
47482;DHT22;33219;47.410;9.730;2023-06-22T15:17:10;29.90;87.70
47482;DHT22;33219;47.410;9.730;2023-06-22T15:19:39;29.60;88.90
47482;DHT22;33219;47.410;9.730;2023-06-22T15:22:07;29.30;90.00
47482;DHT22;33219;47.410;9.730;2023-06-22T15:24:35;29.20;89.00
47482;DHT22;33219;47.410;9.730;2023-06-22T15:27:03;29.00;90.20
47482;DHT22;33219;47.410;9.730;2023-06-22T15:29:30;28.70;89.70
47482;DHT22;33219;47.410;9.730;2023-06-22T15:31:59;28.60;90.30
47482;DHT22;33219;47.410;9.730;2023-06-22T15:34:28;28.50;91.10
47482;DHT22;33219;47.410;9.730;2023-06-22T15:36:55;28.40;92.20
47482;DHT22;33219;47.410;9.730;2023-06-22T15:39:23;28.40;91.90
47482;DHT22;33219;47.410;9.730;2023-06-22T15:41:51;28.50;91.20
47482;DHT22;33219;47.410;9.730;2023-06-22T15:44:21;28.80;90.80
47482;DHT22;33219;47.410;9.730;2023-06-22T15:46:49;28.90;90.30
47482;DHT22;33219;47.410;9.730;2023-06-22T15:49:17;29.00;90.80
47482;DHT22;33219;47.410;9.730;2023-06-22T15:51:45;29.00;89.10
47482;DHT22;33219;47.410;9.730;2023-06-22T15:54:12;28.90;90.00
47482;DHT22;33219;47.410;9.730;2023-06-22T15:56:40;28.90;88.10
47482;DHT22;33219;47.410;9.730;2023-06-22T15:59:07;28.90;86.90
47482;DHT22;33219;47.410;9.730;2023-06-22T16:01:35;29.00;86.90
47482;DHT22;33219;47.410;9.730;2023-06-22T16:04:03;29.00;87.20
47482;DHT22;33219;47.410;9.730;2023-06-22T16:06:30;29.10;88.30
47482;DHT22;33219;47.410;9.730;2023-06-22T16:08:58;29.10;88.00
47482;DHT22;33219;47.410;9.730;2023-06-22T16:11:25;29.00;87.80
47482;DHT22;33219;47.410;9.730;2023-06-22T16:13:53;28.90;88.10
47482;DHT22;33219;47.410;9.730;2023-06-22T16:16:21;28.90;88.40
47482;DHT22;33219;47.410;9.730;2023-06-22T16:18:48;28.80;88.70
47482;DHT22;33219;47.410;9.730;2023-06-22T16:21:16;28.80;88.30
47482;DHT22;33219;47.410;9.730;2023-06-22T16:23:43;28.80;87.80
47482;DHT22;33219;47.410;9.730;2023-06-22T16:26:11;28.80;87.60
47482;DHT22;33219;47.410;9.730;2023-06-22T16:28:39;28.80;87.00
47482;DHT22;33219;47.410;9.730;2023-06-22T16:31:06;28.80;86.00
47482;DHT22;33219;47.410;9.730;2023-06-22T16:33:34;28.80;85.10
47482;DHT22;33219;47.410;9.730;2023-06-22T16:36:01;28.80;84.20
47482;DHT22;33219;47.410;9.730;2023-06-22T16:38:29;28.80;84.50
47482;DHT22;33219;47.410;9.730;2023-06-22T16:40:56;28.70;84.30
47482;DHT22;33219;47.410;9.730;2023-06-22T16:43:24;28.80;84.40
47482;DHT22;33219;47.410;9.730;2023-06-22T16:45:51;28.80;84.50
47482;DHT22;33219;47.410;9.730;2023-06-22T16:48:19;28.80;84.80
47482;DHT22;33219;47.410;9.730;2023-06-22T16:50:46;28.80;85.10
47482;DHT22;33219;47.410;9.730;2023-06-22T16:53:14;28.80;83.30
47482;DHT22;33219;47.410;9.730;2023-06-22T16:55:43;28.90;83.70
47482;DHT22;33219;47.410;9.730;2023-06-22T16:58:13;28.80;83.50
47482;DHT22;33219;47.410;9.730;2023-06-22T17:00:42;28.80;82.70
47482;DHT22;33219;47.410;9.730;2023-06-22T17:03:13;28.80;83.40
47482;DHT22;33219;47.410;9.730;2023-06-22T17:05:40;28.70;83.80
47482;DHT22;33219;47.410;9.730;2023-06-22T17:08:10;28.70;84.00
47482;DHT22;33219;47.410;9.730;2023-06-22T17:10:40;28.60;84.60
47482;DHT22;33219;47.410;9.730;2023-06-22T17:13:08;28.50;84.70
47482;DHT22;33219;47.410;9.730;2023-06-22T17:15:36;28.50;85.20
47482;DHT22;33219;47.410;9.730;2023-06-22T17:18:07;28.30;85.50
47482;DHT22;33219;47.410;9.730;2023-06-22T17:20:35;28.20;85.30
47482;DHT22;33219;47.410;9.730;2023-06-22T17:23:03;28.20;85.40
47482;DHT22;33219;47.410;9.730;2023-06-22T17:25:33;28.10;86.70
47482;DHT22;33219;47.410;9.730;2023-06-22T17:28:03;28.00;86.30
47482;DHT22;33219;47.410;9.730;2023-06-22T17:30:31;27.90;87.10
47482;DHT22;33219;47.410;9.730;2023-06-22T17:32:58;28.00;86.70
47482;DHT22;33219;47.410;9.730;2023-06-22T17:35:29;27.90;87.10
47482;DHT22;33219;47.410;9.730;2023-06-22T17:37:57;27.80;86.90
47482;DHT22;33219;47.410;9.730;2023-06-22T17:40:26;27.70;87.00
47482;DHT22;33219;47.410;9.730;2023-06-22T17:43:03;27.60;87.10
47482;DHT22;33219;47.410;9.730;2023-06-22T17:45:41;27.50;86.20
47482;DHT22;33219;47.410;9.730;2023-06-22T17:48:09;27.40;87.00
47482;DHT22;33219;47.410;9.730;2023-06-22T17:50:40;27.30;87.40
47482;DHT22;33219;47.410;9.730;2023-06-22T17:53:12;27.20;88.80
47482;DHT22;33219;47.410;9.730;2023-06-22T17:55:40;27.10;87.10
47482;DHT22;33219;47.410;9.730;2023-06-22T17:58:08;26.90;91.30
47482;DHT22;33219;47.410;9.730;2023-06-22T18:00:36;25.90;94.00
47482;DHT22;33219;47.410;9.730;2023-06-22T18:03:04;24.10;97.90
47482;DHT22;33219;47.410;9.730;2023-06-22T18:05:36;22.80;99.90
47482;DHT22;33219;47.410;9.730;2023-06-22T18:08:05;22.00;99.90
47482;DHT22;33219;47.410;9.730;2023-06-22T18:10:37;21.50;99.90
47482;DHT22;33219;47.410;9.730;2023-06-22T18:13:05;21.20;99.90
47482;DHT22;33219;47.410;9.730;2023-06-22T18:15:34;20.90;99.90
47482;DHT22;33219;47.410;9.730;2023-06-22T18:18:04;20.60;99.90
47482;DHT22;33219;47.410;9.730;2023-06-22T18:20:38;20.40;99.90